UNNT/OVB METAR and TAF weather

Enter ICAO airport designator
Station Type Date Time Source
UNNT METAR 2020/07/15 02:00 UTC NOAA

UNNT 150200Z 04004MPS CAVOK 18/11 Q1021 R25/090070 R16/090070 NOSIG RMK QFE756/1008


Station Type Date Time Source
UNNT Decoded METAR 2020/07/15 02:00 UTC NOAA

Station name not available
Jul 14, 2020 - 10:00 PM EDT / 2020.07.15 0200 UTC
Wind: from the NE (040 degrees) at 9 MPH (8 KT):0
Visibility: greater than 7 mile(s):0
Temperature: 64 F (18 C)
Dew Point: 51 F (11 C)
Relative Humidity: 63%
Pressure (altimeter): 30.15 in. Hg (1021 hPa)
ob: UNNT 150200Z 04004MPS CAVOK 18/11 Q1021 R25/090070 R16/090070 NOSIG RMK QFE756/1008
cycle: 2

Station Type Date Time Source
UNNT TAF 2020/07/14 21:21 UTC NOAA

TAF UNNT 142000Z 1421/1521 01003G08MPS CAVOK
TEMPO 1502/1516 04006G13MPS

Example: see airport list